sensor_id;sensor_type;location;lat;lon;timestamp;pressure;altitude;pressure_sealevel;temperature;humidity
3102;BME280;1561;42.666;23.392;2024-01-27T00:00:44;95665.31;;;4.17;100.00
3102;BME280;1561;42.666;23.392;2024-01-27T00:03:11;95674.47;;;4.20;100.00
3102;BME280;1561;42.666;23.392;2024-01-27T00:05:38;95664.34;;;4.20;100.00
3102;BME280;1561;42.666;23.392;2024-01-27T00:08:05;95675.13;;;4.23;100.00
3102;BME280;1561;42.666;23.392;2024-01-27T00:10:35;95671.41;;;4.30;100.00
3102;BME280;1561;42.666;23.392;2024-01-27T00:13:03;95664.28;;;4.21;100.00
3102;BME280;1561;42.666;23.392;2024-01-27T00:15:31;95680.63;;;4.31;100.00
3102;BME280;1561;42.666;23.392;2024-01-27T00:17:58;95672.97;;;4.33;100.00
3102;BME280;1561;42.666;23.392;2024-01-27T00:20:26;95672.75;;;4.37;100.00
3102;BME280;1561;42.666;23.392;2024-01-27T00:22:53;95662.03;;;4.32;100.00
3102;BME280;1561;42.666;23.392;2024-01-27T00:25:20;95662.84;;;4.33;100.00
3102;BME280;1561;42.666;23.392;2024-01-27T00:27:50;95669.53;;;4.34;100.00
3102;BME280;1561;42.666;23.392;2024-01-27T00:30:17;95663.06;;;4.28;100.00
3102;BME280;1561;42.666;23.392;2024-01-27T00:32:44;95643.06;;;4.24;100.00
3102;BME280;1561;42.666;23.392;2024-01-27T00:35:11;95658.69;;;4.49;100.00
3102;BME280;1561;42.666;23.392;2024-01-27T00:37:41;95657.31;;;3.57;100.00
3102;BME280;1561;42.666;23.392;2024-01-27T00:40:09;95663.28;;;3.19;100.00
3102;BME280;1561;42.666;23.392;2024-01-27T00:42:38;95667.53;;;3.00;100.00
3102;BME280;1561;42.666;23.392;2024-01-27T00:45:08;95665.31;;;2.74;100.00
3102;BME280;1561;42.666;23.392;2024-01-27T00:47:35;95663.06;;;2.68;100.00
3102;BME280;1561;42.666;23.392;2024-01-27T00:50:02;95645.19;;;2.14;100.00
3102;BME280;1561;42.666;23.392;2024-01-27T00:52:32;95664.16;;;2.02;100.00
3102;BME280;1561;42.666;23.392;2024-01-27T00:55:03;95674.28;;;2.01;100.00
3102;BME280;1561;42.666;23.392;2024-01-27T00:57:30;95671.03;;;1.99;100.00
3102;BME280;1561;42.666;23.392;2024-01-27T00:59:57;95664.53;;;1.73;100.00
3102;BME280;1561;42.666;23.392;2024-01-27T01:02:25;95665.25;;;1.55;100.00
3102;BME280;1561;42.666;23.392;2024-01-27T01:04:52;95664.66;;;1.49;100.00
3102;BME280;1561;42.666;23.392;2024-01-27T01:07:21;95659.69;;;1.47;100.00
3102;BME280;1561;42.666;23.392;2024-01-27T01:09:48;95655.44;;;1.69;100.00
3102;BME280;1561;42.666;23.392;2024-01-27T01:12:15;95643.53;;;1.73;100.00
3102;BME280;1561;42.666;23.392;2024-01-27T01:14:43;95665.81;;;1.62;100.00
3102;BME280;1561;42.666;23.392;2024-01-27T01:17:10;95669.44;;;1.55;100.00
3102;BME280;1561;42.666;23.392;2024-01-27T01:19:40;95663.13;;;1.66;100.00
3102;BME280;1561;42.666;23.392;2024-01-27T01:22:08;95674.34;;;1.79;100.00
3102;BME280;1561;42.666;23.392;2024-01-27T01:24:37;95662.38;;;1.64;100.00
3102;BME280;1561;42.666;23.392;2024-01-27T01:27:05;95674.06;;;1.65;100.00
3102;BME280;1561;42.666;23.392;2024-01-27T01:29:32;95664.69;;;1.69;100.00
3102;BME280;1561;42.666;23.392;2024-01-27T01:31:59;95650.88;;;1.57;100.00
3102;BME280;1561;42.666;23.392;2024-01-27T01:34:29;95644.28;;;1.96;100.00
3102;BME280;1561;42.666;23.392;2024-01-27T01:36:58;95644.66;;;2.27;100.00
3102;BME280;1561;42.666;23.392;2024-01-27T01:39:27;95629.97;;;1.97;100.00
3102;BME280;1561;42.666;23.392;2024-01-27T01:41:55;95632.03;;;2.27;100.00
3102;BME280;1561;42.666;23.392;2024-01-27T01:44:22;95638.94;;;2.42;100.00
3102;BME280;1561;42.666;23.392;2024-01-27T01:46:50;95636.47;;;2.41;100.00
3102;BME280;1561;42.666;23.392;2024-01-27T01:49:18;95639.25;;;2.55;100.00
3102;BME280;1561;42.666;23.392;2024-01-27T01:51:46;95626.03;;;2.68;100.00
3102;BME280;1561;42.666;23.392;2024-01-27T01:54:15;95627.91;;;2.83;100.00
3102;BME280;1561;42.666;23.392;2024-01-27T01:56:42;95615.69;;;2.74;100.00
3102;BME280;1561;42.666;23.392;2024-01-27T01:59:10;95631.88;;;2.50;100.00
3102;BME280;1561;42.666;23.392;2024-01-27T02:01:38;95633.50;;;2.33;100.00
3102;BME280;1561;42.666;23.392;2024-01-27T02:04:05;95638.31;;;2.37;100.00
3102;BME280;1561;42.666;23.392;2024-01-27T02:06:32;95624.13;;;2.55;100.00
3102;BME280;1561;42.666;23.392;2024-01-27T02:08:59;95622.97;;;2.43;100.00
3102;BME280;1561;42.666;23.392;2024-01-27T02:11:28;95616.59;;;2.35;100.00
3102;BME280;1561;42.666;23.392;2024-01-27T02:13:56;95612.94;;;2.42;100.00
3102;BME280;1561;42.666;23.392;2024-01-27T02:16:23;95594.56;;;2.58;100.00
3102;BME280;1561;42.666;23.392;2024-01-27T02:18:50;95596.81;;;2.46;100.00
3102;BME280;1561;42.666;23.392;2024-01-27T02:21:18;95575.63;;;2.50;100.00
3102;BME280;1561;42.666;23.392;2024-01-27T02:23:48;95609.88;;;2.72;100.00
3102;BME280;1561;42.666;23.392;2024-01-27T02:26:19;95597.06;;;2.58;100.00
3102;BME280;1561;42.666;23.392;2024-01-27T02:28:46;95612.66;;;2.48;100.00
3102;BME280;1561;42.666;23.392;2024-01-27T02:31:13;95607.16;;;2.58;100.00
3102;BME280;1561;42.666;23.392;2024-01-27T02:33:40;95615.69;;;2.74;100.00
3102;BME280;1561;42.666;23.392;2024-01-27T02:36:10;95614.88;;;2.74;100.00
3102;BME280;1561;42.666;23.392;2024-01-27T02:38:37;95609.41;;;2.64;100.00
3102;BME280;1561;42.666;23.392;2024-01-27T02:41:04;95615.03;;;2.32;100.00
3102;BME280;1561;42.666;23.392;2024-01-27T02:43:34;95621.19;;;2.25;100.00
3102;BME280;1561;42.666;23.392;2024-01-27T02:46:00;95620.19;;;2.29;100.00
3102;BME280;1561;42.666;23.392;2024-01-27T02:48:31;95612.16;;;2.21;100.00
3102;BME280;1561;42.666;23.392;2024-01-27T02:50:58;95604.03;;;2.15;100.00
3102;BME280;1561;42.666;23.392;2024-01-27T02:53:29;95606.56;;;2.33;100.00
3102;BME280;1561;42.666;23.392;2024-01-27T02:55:56;95609.75;;;2.18;100.00
3102;BME280;1561;42.666;23.392;2024-01-27T02:58:23;95600.50;;;2.19;100.00
3102;BME280;1561;42.666;23.392;2024-01-27T03:00:52;95599.28;;;2.27;100.00
3102;BME280;1561;42.666;23.392;2024-01-27T03:03:19;95607.78;;;2.25;100.00
3102;BME280;1561;42.666;23.392;2024-01-27T03:05:48;95615.34;;;2.25;100.00
3102;BME280;1561;42.666;23.392;2024-01-27T03:08:15;95614.84;;;2.37;100.00
3102;BME280;1561;42.666;23.392;2024-01-27T03:10:42;95633.28;;;2.37;100.00
3102;BME280;1561;42.666;23.392;2024-01-27T03:13:13;95622.06;;;2.24;100.00
3102;BME280;1561;42.666;23.392;2024-01-27T03:15:40;95614.75;;;2.38;100.00
3102;BME280;1561;42.666;23.392;2024-01-27T03:18:10;95612.78;;;2.45;100.00
3102;BME280;1561;42.666;23.392;2024-01-27T03:20:37;95611.19;;;2.24;100.00
3102;BME280;1561;42.666;23.392;2024-01-27T03:23:06;95611.75;;;2.30;100.00
3102;BME280;1561;42.666;23.392;2024-01-27T03:25:34;95607.69;;;2.46;100.00
3102;BME280;1561;42.666;23.392;2024-01-27T03:28:01;95591.28;;;2.18;100.00
3102;BME280;1561;42.666;23.392;2024-01-27T03:30:29;95605.72;;;2.34;100.00
3102;BME280;1561;42.666;23.392;2024-01-27T03:32:56;95600.94;;;2.47;100.00
3102;BME280;1561;42.666;23.392;2024-01-27T03:35:30;95607.19;;;2.77;100.00
3102;BME280;1561;42.666;23.392;2024-01-27T03:37:57;95604.88;;;3.26;100.00
3102;BME280;1561;42.666;23.392;2024-01-27T03:40:24;95585.97;;;3.35;100.00
3102;BME280;1561;42.666;23.392;2024-01-27T03:42:52;95600.63;;;3.79;100.00
3102;BME280;1561;42.666;23.392;2024-01-27T03:45:19;95580.34;;;3.98;100.00
3102;BME280;1561;42.666;23.392;2024-01-27T03:47:46;95585.28;;;4.33;100.00
3102;BME280;1561;42.666;23.392;2024-01-27T03:50:13;95571.84;;;4.48;100.00
3102;BME280;1561;42.666;23.392;2024-01-27T03:52:42;95551.47;;;4.51;100.00
3102;BME280;1561;42.666;23.392;2024-01-27T03:55:10;95566.91;;;4.78;100.00
3102;BME280;1561;42.666;23.392;2024-01-27T03:57:37;95577.53;;;4.84;100.00
3102;BME280;1561;42.666;23.392;2024-01-27T04:00:05;95567.88;;;4.75;100.00
3102;BME280;1561;42.666;23.392;2024-01-27T04:02:33;95572.22;;;4.73;100.00
3102;BME280;1561;42.666;23.392;2024-01-27T04:05:00;95547.41;;;4.80;100.00
3102;BME280;1561;42.666;23.392;2024-01-27T04:07:27;95547.91;;;4.71;100.00
3102;BME280;1561;42.666;23.392;2024-01-27T04:09:56;95587.16;;;4.93;100.00
3102;BME280;1561;42.666;23.392;2024-01-27T04:12:23;95588.97;;;4.76;100.00
3102;BME280;1561;42.666;23.392;2024-01-27T04:14:50;95557.69;;;4.61;100.00
3102;BME280;1561;42.666;23.392;2024-01-27T04:17:18;95577.44;;;5.01;100.00
3102;BME280;1561;42.666;23.392;2024-01-27T04:19:45;95582.19;;;4.92;100.00
3102;BME280;1561;42.666;23.392;2024-01-27T04:22:12;95557.78;;;4.91;100.00
3102;BME280;1561;42.666;23.392;2024-01-27T04:24:41;95565.94;;;5.11;100.00
3102;BME280;1561;42.666;23.392;2024-01-27T04:27:10;95560.44;;;5.03;100.00
3102;BME280;1561;42.666;23.392;2024-01-27T04:29:37;95578.09;;;5.05;100.00
3102;BME280;1561;42.666;23.392;2024-01-27T04:32:05;95573.94;;;4.88;100.00
3102;BME280;1561;42.666;23.392;2024-01-27T04:34:32;95574.50;;;4.93;100.00
3102;BME280;1561;42.666;23.392;2024-01-27T04:36:59;95572.88;;;5.08;100.00
3102;BME280;1561;42.666;23.392;2024-01-27T04:39:26;95572.63;;;4.97;100.00
3102;BME280;1561;42.666;23.392;2024-01-27T04:41:53;95578.50;;;4.97;100.00
3102;BME280;1561;42.666;23.392;2024-01-27T04:44:24;95577.38;;;5.03;100.00
3102;BME280;1561;42.666;23.392;2024-01-27T04:46:53;95576.88;;;4.96;100.00
3102;BME280;1561;42.666;23.392;2024-01-27T04:49:20;95392.91;;;3.90;100.00
3102;BME280;1561;42.666;23.392;2024-01-27T04:51:48;95574.91;;;5.01;100.00
3102;BME280;1561;42.666;23.392;2024-01-27T04:54:15;95566.41;;;4.87;100.00
3102;BME280;1561;42.666;23.392;2024-01-27T04:56:42;95571.00;;;4.80;100.00
3102;BME280;1561;42.666;23.392;2024-01-27T04:59:09;95576.56;;;4.39;100.00
3102;BME280;1561;42.666;23.392;2024-01-27T05:01:44;95587.09;;;3.97;100.00
3102;BME280;1561;42.666;23.392;2024-01-27T05:04:11;95588.38;;;3.89;100.00
3102;BME280;1561;42.666;23.392;2024-01-27T05:06:43;95594.03;;;3.77;100.00
3102;BME280;1561;42.666;23.392;2024-01-27T05:09:12;95601.75;;;3.74;100.00
3102;BME280;1561;42.666;23.392;2024-01-27T05:11:40;95575.31;;;3.47;100.00
3102;BME280;1561;42.666;23.392;2024-01-27T05:14:08;95595.78;;;3.41;100.00
3102;BME280;1561;42.666;23.392;2024-01-27T05:16:35;95586.44;;;3.43;100.00
3102;BME280;1561;42.666;23.392;2024-01-27T05:19:04;95582.34;;;3.05;100.00
3102;BME280;1561;42.666;23.392;2024-01-27T05:21:32;95592.25;;;3.26;100.00
3102;BME280;1561;42.666;23.392;2024-01-27T05:23:59;95599.69;;;3.29;100.00
3102;BME280;1561;42.666;23.392;2024-01-27T05:26:27;95592.28;;;3.43;100.00
3102;BME280;1561;42.666;23.392;2024-01-27T05:28:54;95578.66;;;3.12;100.00
3102;BME280;1561;42.666;23.392;2024-01-27T05:31:21;95582.03;;;3.29;100.00
3102;BME280;1561;42.666;23.392;2024-01-27T05:33:48;95583.97;;;3.41;100.00
3102;BME280;1561;42.666;23.392;2024-01-27T05:36:16;95567.31;;;3.20;100.00
3102;BME280;1561;42.666;23.392;2024-01-27T05:38:45;95585.41;;;3.47;100.00
3102;BME280;1561;42.666;23.392;2024-01-27T05:41:12;95573.06;;;3.41;100.00
3102;BME280;1561;42.666;23.392;2024-01-27T05:43:39;95572.97;;;3.42;100.00
3102;BME280;1561;42.666;23.392;2024-01-27T05:46:05;95587.41;;;3.74;100.00
3102;BME280;1561;42.666;23.392;2024-01-27T05:48:35;95536.81;;;3.42;100.00
3102;BME280;1561;42.666;23.392;2024-01-27T05:51:02;95590.22;;;3.51;100.00
3102;BME280;1561;42.666;23.392;2024-01-27T05:53:34;95584.00;;;3.58;100.00
3102;BME280;1561;42.666;23.392;2024-01-27T05:56:02;95594.25;;;3.55;100.00
3102;BME280;1561;42.666;23.392;2024-01-27T05:58:30;95591.06;;;3.52;100.00
3102;BME280;1561;42.666;23.392;2024-01-27T06:00:57;95571.84;;;3.31;100.00
3102;BME280;1561;42.666;23.392;2024-01-27T06:03:24;95598.63;;;3.69;100.00
3102;BME280;1561;42.666;23.392;2024-01-27T06:05:51;95601.78;;;3.38;100.00
3102;BME280;1561;42.666;23.392;2024-01-27T06:08:19;95598.13;;;3.62;100.00
3102;BME280;1561;42.666;23.392;2024-01-27T06:10:47;95601.38;;;3.81;100.00
3102;BME280;1561;42.666;23.392;2024-01-27T06:13:14;95605.16;;;3.73;100.00
3102;BME280;1561;42.666;23.392;2024-01-27T06:15:44;95604.09;;;3.60;100.00
3102;BME280;1561;42.666;23.392;2024-01-27T06:18:12;95619.63;;;3.52;100.00
3102;BME280;1561;42.666;23.392;2024-01-27T06:20:41;95551.22;;;3.04;100.00
3102;BME280;1561;42.666;23.392;2024-01-27T06:23:10;95612.00;;;3.71;100.00
3102;BME280;1561;42.666;23.392;2024-01-27T06:25:39;95614.00;;;3.64;100.00
3102;BME280;1561;42.666;23.392;2024-01-27T06:28:09;95616.84;;;3.58;100.00
3102;BME280;1561;42.666;23.392;2024-01-27T06:30:36;95619.00;;;3.66;100.00
3102;BME280;1561;42.666;23.392;2024-01-27T06:33:03;95619.44;;;3.74;100.00
3102;BME280;1561;42.666;23.392;2024-01-27T06:35:30;95621.03;;;3.93;100.00
3102;BME280;1561;42.666;23.392;2024-01-27T06:37:58;95621.53;;;4.00;100.00
3102;BME280;1561;42.666;23.392;2024-01-27T06:40:27;95556.56;;;3.51;100.00
3102;BME280;1561;42.666;23.392;2024-01-27T06:42:54;95631.34;;;3.89;100.00
3102;BME280;1561;42.666;23.392;2024-01-27T06:45:27;95640.88;;;4.01;100.00
3102;BME280;1561;42.666;23.392;2024-01-27T06:47:54;95634.97;;;4.17;100.00
3102;BME280;1561;42.666;23.392;2024-01-27T06:50:22;95623.88;;;4.37;100.00
3102;BME280;1561;42.666;23.392;2024-01-27T06:52:52;95637.97;;;4.58;100.00
3102;BME280;1561;42.666;23.392;2024-01-27T06:55:19;95645.97;;;4.66;100.00
3102;BME280;1561;42.666;23.392;2024-01-27T06:57:46;95622.97;;;4.70;100.00
3102;BME280;1561;42.666;23.392;2024-01-27T07:00:21;95612.34;;;5.12;100.00
3102;BME280;1561;42.666;23.392;2024-01-27T07:02:50;95627.75;;;5.38;100.00
3102;BME280;1561;42.666;23.392;2024-01-27T07:05:17;95601.06;;;5.33;100.00
3102;BME280;1561;42.666;23.392;2024-01-27T07:07:45;95628.63;;;5.53;100.00
3102;BME280;1561;42.666;23.392;2024-01-27T07:10:12;95603.88;;;5.58;100.00
3102;BME280;1561;42.666;23.392;2024-01-27T07:12:39;95575.59;;;5.65;100.00
3102;BME280;1561;42.666;23.392;2024-01-27T07:15:07;95591.63;;;5.95;100.00
3102;BME280;1561;42.666;23.392;2024-01-27T07:17:37;95597.81;;;6.05;100.00
3102;BME280;1561;42.666;23.392;2024-01-27T07:20:17;95603.97;;;6.01;100.00
3102;BME280;1561;42.666;23.392;2024-01-27T07:22:56;95619.53;;;6.09;100.00
3102;BME280;1561;42.666;23.392;2024-01-27T07:25:23;95635.19;;;6.02;100.00
3102;BME280;1561;42.666;23.392;2024-01-27T07:27:50;95637.16;;;5.97;100.00
3102;BME280;1561;42.666;23.392;2024-01-27T07:30:20;95647.94;;;6.00;100.00
3102;BME280;1561;42.666;23.392;2024-01-27T07:32:47;95647.94;;;6.00;100.00
3102;BME280;1561;42.666;23.392;2024-01-27T07:35:16;95662.81;;;5.92;100.00
3102;BME280;1561;42.666;23.392;2024-01-27T07:37:43;95671.19;;;5.93;100.00
3102;BME280;1561;42.666;23.392;2024-01-27T07:40:14;95683.25;;;5.89;100.00
3102;BME280;1561;42.666;23.392;2024-01-27T07:42:41;95679.97;;;5.87;100.00
3102;BME280;1561;42.666;23.392;2024-01-27T07:45:09;95684.88;;;5.90;100.00
3102;BME280;1561;42.666;23.392;2024-01-27T07:47:39;95691.09;;;5.85;100.00
3102;BME280;1561;42.666;23.392;2024-01-27T07:50:07;95675.16;;;5.83;100.00
3102;BME280;1561;42.666;23.392;2024-01-27T07:52:39;95667.28;;;5.87;100.00
3102;BME280;1561;42.666;23.392;2024-01-27T07:55:10;95687.09;;;5.96;100.00
3102;BME280;1561;42.666;23.392;2024-01-27T07:57:40;95687.25;;;6.23;100.00
3102;BME280;1561;42.666;23.392;2024-01-27T08:00:10;95695.72;;;6.08;100.00
3102;BME280;1561;42.666;23.392;2024-01-27T08:02:39;95710.38;;;5.87;100.00
3102;BME280;1561;42.666;23.392;2024-01-27T08:05:07;95685.44;;;5.64;100.00
3102;BME280;1561;42.666;23.392;2024-01-27T08:07:34;95682.59;;;5.70;100.00
3102;BME280;1561;42.666;23.392;2024-01-27T08:10:03;95685.69;;;5.75;100.00
3102;BME280;1561;42.666;23.392;2024-01-27T08:12:30;95693.88;;;5.80;100.00
3102;BME280;1561;42.666;23.392;2024-01-27T08:14:58;95695.50;;;5.97;100.00
3102;BME280;1561;42.666;23.392;2024-01-27T08:17:32;95710.84;;;6.09;100.00
3102;BME280;1561;42.666;23.392;2024-01-27T08:20:00;95698.19;;;5.94;100.00
3102;BME280;1561;42.666;23.392;2024-01-27T08:22:27;95696.00;;;6.17;100.00
3102;BME280;1561;42.666;23.392;2024-01-27T08:24:54;95654.88;;;6.12;100.00
3102;BME280;1561;42.666;23.392;2024-01-27T08:27:23;95676.00;;;7.26;100.00
3102;BME280;1561;42.666;23.392;2024-01-27T08:29:50;95691.66;;;6.49;100.00
3102;BME280;1561;42.666;23.392;2024-01-27T08:32:19;95638.06;;;6.25;100.00
3102;BME280;1561;42.666;23.392;2024-01-27T08:34:48;95662.22;;;6.88;100.00
3102;BME280;1561;42.666;23.392;2024-01-27T08:37:18;95678.56;;;9.09;100.00
3102;BME280;1561;42.666;23.392;2024-01-27T08:39:46;95656.63;;;8.94;100.00
3102;BME280;1561;42.666;23.392;2024-01-27T08:42:18;95606.13;;;8.38;100.00
3102;BME280;1561;42.666;23.392;2024-01-27T08:44:47;95638.66;;;8.20;100.00
3102;BME280;1561;42.666;23.392;2024-01-27T08:47:14;95672.13;;;8.14;100.00
3102;BME280;1561;42.666;23.392;2024-01-27T08:49:43;95589.50;;;6.87;100.00
3102;BME280;1561;42.666;23.392;2024-01-27T08:52:25;95681.59;;;8.89;100.00
3102;BME280;1561;42.666;23.392;2024-01-27T08:54:52;95658.41;;;9.42;100.00
3102;BME280;1561;42.666;23.392;2024-01-27T08:57:20;95650.94;;;10.22;100.00
3102;BME280;1561;42.666;23.392;2024-01-27T08:59:49;95624.44;;;9.42;100.00
3102;BME280;1561;42.666;23.392;2024-01-27T09:02:16;95637.34;;;10.56;100.00
3102;BME280;1561;42.666;23.392;2024-01-27T09:04:49;95640.63;;;10.58;100.00
3102;BME280;1561;42.666;23.392;2024-01-27T09:07:16;95625.56;;;10.99;100.00
3102;BME280;1561;42.666;23.392;2024-01-27T09:09:49;95603.81;;;10.61;100.00
3102;BME280;1561;42.666;23.392;2024-01-27T09:12:36;95641.09;;;11.62;98.60
3102;BME280;1561;42.666;23.392;2024-01-27T09:15:08;95629.97;;;11.95;93.18
3102;BME280;1561;42.666;23.392;2024-01-27T09:17:42;95631.72;;;10.97;93.32
3102;BME280;1561;42.666;23.392;2024-01-27T09:20:11;95605.81;;;10.12;97.93
3102;BME280;1561;42.666;23.392;2024-01-27T09:22:39;95643.09;;;8.56;100.00
3102;BME280;1561;42.666;23.392;2024-01-27T09:25:07;95650.91;;;10.11;100.00
3102;BME280;1561;42.666;23.392;2024-01-27T09:27:35;95628.59;;;9.79;100.00
3102;BME280;1561;42.666;23.392;2024-01-27T09:30:08;95631.81;;;9.34;100.00
3102;BME280;1561;42.666;23.392;2024-01-27T09:32:39;95597.94;;;9.32;100.00
3102;BME280;1561;42.666;23.392;2024-01-27T09:35:08;95525.25;;;8.54;100.00
3102;BME280;1561;42.666;23.392;2024-01-27T09:37:37;95622.88;;;9.52;100.00
3102;BME280;1561;42.666;23.392;2024-01-27T09:40:09;95663.69;;;10.11;100.00
3102;BME280;1561;42.666;23.392;2024-01-27T09:42:39;95677.03;;;11.17;99.25
3102;BME280;1561;42.666;23.392;2024-01-27T09:45:14;95671.22;;;8.92;100.00
3102;BME280;1561;42.666;23.392;2024-01-27T09:47:46;95686.09;;;10.42;100.00
3102;BME280;1561;42.666;23.392;2024-01-27T09:50:17;95670.19;;;9.56;100.00
3102;BME280;1561;42.666;23.392;2024-01-27T09:52:45;95704.44;;;9.03;100.00
3102;BME280;1561;42.666;23.392;2024-01-27T09:55:17;95736.13;;;8.35;100.00
3102;BME280;1561;42.666;23.392;2024-01-27T09:57:49;95677.16;;;7.49;100.00
3102;BME280;1561;42.666;23.392;2024-01-27T10:00:24;95695.59;;;7.38;100.00
3102;BME280;1561;42.666;23.392;2024-01-27T10:02:58;95752.16;;;7.14;100.00
3102;BME280;1561;42.666;23.392;2024-01-27T10:05:32;95722.38;;;7.02;100.00
3102;BME280;1561;42.666;23.392;2024-01-27T10:08:01;95730.63;;;8.41;100.00
3102;BME280;1561;42.666;23.392;2024-01-27T10:10:28;95721.63;;;7.96;100.00
3102;BME280;1561;42.666;23.392;2024-01-27T10:12:58;95728.09;;;8.14;100.00
3102;BME280;1561;42.666;23.392;2024-01-27T10:15:30;95680.28;;;7.40;100.00
3102;BME280;1561;42.666;23.392;2024-01-27T10:18:06;95684.38;;;7.14;100.00
3102;BME280;1561;42.666;23.392;2024-01-27T10:20:44;95732.81;;;7.39;100.00
3102;BME280;1561;42.666;23.392;2024-01-27T10:23:17;95706.31;;;7.01;100.00
3102;BME280;1561;42.666;23.392;2024-01-27T10:25:46;95656.97;;;7.60;100.00
3102;BME280;1561;42.666;23.392;2024-01-27T10:28:19;95710.25;;;8.02;100.00
3102;BME280;1561;42.666;23.392;2024-01-27T10:30:47;95711.31;;;7.45;100.00
3102;BME280;1561;42.666;23.392;2024-01-27T10:33:15;95609.72;;;6.33;100.00
3102;BME280;1561;42.666;23.392;2024-01-27T10:35:43;95727.84;;;6.96;100.00
3102;BME280;1561;42.666;23.392;2024-01-27T10:38:12;95720.84;;;6.99;100.00
3102;BME280;1561;42.666;23.392;2024-01-27T10:40:44;95739.38;;;6.72;100.00
3102;BME280;1561;42.666;23.392;2024-01-27T10:43:14;95708.59;;;6.92;100.00
3102;BME280;1561;42.666;23.392;2024-01-27T10:45:48;95718.31;;;6.99;100.00
3102;BME280;1561;42.666;23.392;2024-01-27T10:48:15;95738.44;;;7.16;100.00
3102;BME280;1561;42.666;23.392;2024-01-27T10:50:44;95731.00;;;7.13;100.00
3102;BME280;1561;42.666;23.392;2024-01-27T10:53:24;95738.72;;;6.98;100.00
3102;BME280;1561;42.666;23.392;2024-01-27T10:56:01;95744.50;;;6.86;100.00
3102;BME280;1561;42.666;23.392;2024-01-27T10:58:38;95744.22;;;6.47;100.00
3102;BME280;1561;42.666;23.392;2024-01-27T11:01:19;95748.09;;;6.68;100.00
3102;BME280;1561;42.666;23.392;2024-01-27T11:04:00;95765.78;;;6.83;100.00
3102;BME280;1561;42.666;23.392;2024-01-27T11:06:29;95759.09;;;6.82;100.00
3102;BME280;1561;42.666;23.392;2024-01-27T11:09:04;95773.50;;;6.52;100.00
3102;BME280;1561;42.666;23.392;2024-01-27T11:11:40;95766.50;;;6.42;100.00
3102;BME280;1561;42.666;23.392;2024-01-27T11:14:09;95740.03;;;6.16;100.00
3102;BME280;1561;42.666;23.392;2024-01-27T11:16:38;95783.53;;;6.69;100.00
3102;BME280;1561;42.666;23.392;2024-01-27T11:19:09;95744.94;;;6.19;100.00
3102;BME280;1561;42.666;23.392;2024-01-27T11:21:40;95790.19;;;6.27;100.00
3102;BME280;1561;42.666;23.392;2024-01-27T11:24:14;95793.94;;;6.35;100.00
3102;BME280;1561;42.666;23.392;2024-01-27T11:26:45;95792.25;;;6.20;100.00
3102;BME280;1561;42.666;23.392;2024-01-27T11:29:16;95779.00;;;6.15;100.00
3102;BME280;1561;42.666;23.392;2024-01-27T11:31:48;95803.72;;;5.96;100.00
3102;BME280;1561;42.666;23.392;2024-01-27T11:34:19;95806.91;;;5.84;100.00
3102;BME280;1561;42.666;23.392;2024-01-27T11:36:50;95780.41;;;5.90;100.00
3102;BME280;1561;42.666;23.392;2024-01-27T11:39:27;95800.00;;;5.86;100.00
3102;BME280;1561;42.666;23.392;2024-01-27T11:42:04;95785.38;;;5.91;100.00
3102;BME280;1561;42.666;23.392;2024-01-27T11:44:34;95811.13;;;5.84;100.00
3102;BME280;1561;42.666;23.392;2024-01-27T11:47:14;95813.16;;;5.77;100.00
3102;BME280;1561;42.666;23.392;2024-01-27T11:49:42;95785.75;;;5.68;100.00
3102;BME280;1561;42.666;23.392;2024-01-27T11:52:10;95798.69;;;5.79;100.00
3102;BME280;1561;42.666;23.392;2024-01-27T11:54:37;95792.38;;;5.71;100.00
3102;BME280;1561;42.666;23.392;2024-01-27T11:57:05;95807.81;;;5.83;100.00
3102;BME280;1561;42.666;23.392;2024-01-27T11:59:35;95819.84;;;5.78;100.00
3102;BME280;1561;42.666;23.392;2024-01-27T12:02:09;95792.16;;;5.75;100.00
3102;BME280;1561;42.666;23.392;2024-01-27T12:04:40;95812.88;;;5.83;100.00
3102;BME280;1561;42.666;23.392;2024-01-27T12:07:08;95827.00;;;5.87;100.00
3102;BME280;1561;42.666;23.392;2024-01-27T12:09:37;95836.06;;;5.91;100.00
3102;BME280;1561;42.666;23.392;2024-01-27T12:12:06;95789.22;;;5.83;100.00
3102;BME280;1561;42.666;23.392;2024-01-27T12:14:45;95820.63;;;6.11;100.00
3102;BME280;1561;42.666;23.392;2024-01-27T12:17:17;95738.84;;;5.61;100.00
3102;BME280;1561;42.666;23.392;2024-01-27T12:19:48;95816.38;;;6.27;100.00
3102;BME280;1561;42.666;23.392;2024-01-27T12:22:24;95784.84;;;6.31;100.00
3102;BME280;1561;42.666;23.392;2024-01-27T12:24:53;95822.56;;;6.82;100.00
3102;BME280;1561;42.666;23.392;2024-01-27T12:27:22;95809.59;;;7.44;100.00
3102;BME280;1561;42.666;23.392;2024-01-27T12:29:49;95810.50;;;7.71;100.00
3102;BME280;1561;42.666;23.392;2024-01-27T12:32:24;95798.44;;;7.19;100.00
3102;BME280;1561;42.666;23.392;2024-01-27T12:34:51;95805.19;;;8.02;100.00
3102;BME280;1561;42.666;23.392;2024-01-27T12:37:21;95799.44;;;7.58;100.00
3102;BME280;1561;42.666;23.392;2024-01-27T12:39:50;95850.66;;;7.52;100.00
3102;BME280;1561;42.666;23.392;2024-01-27T12:42:18;95801.06;;;7.31;100.00
3102;BME280;1561;42.666;23.392;2024-01-27T12:44:46;95709.53;;;6.61;100.00
3102;BME280;1561;42.666;23.392;2024-01-27T12:47:13;95792.06;;;7.12;100.00
3102;BME280;1561;42.666;23.392;2024-01-27T12:49:43;95806.50;;;7.25;100.00
3102;BME280;1561;42.666;23.392;2024-01-27T12:52:10;95791.72;;;7.32;100.00
3102;BME280;1561;42.666;23.392;2024-01-27T12:54:40;95843.72;;;6.83;100.00
3102;BME280;1561;42.666;23.392;2024-01-27T12:57:08;95833.63;;;7.11;100.00
3102;BME280;1561;42.666;23.392;2024-01-27T12:59:35;95831.22;;;6.94;100.00
3102;BME280;1561;42.666;23.392;2024-01-27T13:02:05;95806.84;;;7.05;100.00
3102;BME280;1561;42.666;23.392;2024-01-27T13:04:31;95801.56;;;6.94;100.00
3102;BME280;1561;42.666;23.392;2024-01-27T13:07:03;95837.41;;;6.74;100.00
3102;BME280;1561;42.666;23.392;2024-01-27T13:09:30;95827.88;;;6.93;100.00
3102;BME280;1561;42.666;23.392;2024-01-27T13:11:58;95834.81;;;6.90;100.00
3102;BME280;1561;42.666;23.392;2024-01-27T13:14:25;95823.50;;;6.36;100.00
3102;BME280;1561;42.666;23.392;2024-01-27T13:16:55;95836.88;;;6.83;100.00
3102;BME280;1561;42.666;23.392;2024-01-27T13:19:25;95791.56;;;6.48;100.00